• Join FlightAware (Why Join?)
  • Login
  • US Flag 
09:41PM EDT


 

Airport Tracker/Info


-or-


 

Live Flight TrackerFlight Track Log ✈ KFS28 ✈ 07-May-2013 ✈ KRFD - KYIP

Flight Track Log - Related Links

Times and Time Zones

All times are in EDT time to prevent confusion due to time zone crossing. See the KFS28 flight status page for this flight to view local times or setup timezone preferences in your user account.

Time Position Orientation Groundspeed Altitude Reporting Facility
EDT Latitude Longitude Course Direction KTS MPH feet Rate Location/Type
01:28PM 42.2947 -88.9719 51° Northeast 253 291 7,600  Level Chicago Center
01:29PM 42.2964 -88.8647 89° East 281 323 9,200 2,580 Climbing Chicago Center
01:30PM 42.2994 -88.7431 88° East 296 341 13,000 3,240 Climbing Chicago Center
01:31PM 42.3242 -88.6272 74° East 317 365 15,900 2,400 Climbing Chicago Center
01:32PM 42.5535 -88.5123 43° Northeast  Level FlightAware Approximate
01:32PM 42.3450 -88.4967 78° East 324 373 18,000  Level Chicago Center
01:33PM 42.3617 -88.3644 80° East 346 398 20,100 2,220 Climbing Chicago Center
01:34PM 42.3858 -88.2344 76° East 354 407 22,700 2,040 Climbing Chicago Center
01:35PM 42.4119 -88.0842 77° East 354 407 24,400 1,080 Climbing Chicago Center
01:36PM 42.4353 -87.9461 77° East 372 428 25,000 240 Climbing Chicago Center
01:37PM 42.4567 -87.7925 79° East 408 470 25,000  Level Chicago Center
01:38PM 42.4794 -87.6497 78° East 413 475 25,000  Level Chicago Center
01:39PM 42.5103 -87.4681 77° East 413 475 25,000  Level Chicago Center
01:40PM 42.5331 -87.3133 79° East 417 480 25,000  Level Chicago Center
01:41PM 42.5575 -87.1614 78° East 414 476 25,000  Level Chicago Center
01:42PM 42.5803 -86.9975 79° East 416 479 25,000  Level Chicago Center
01:43PM 42.6056 -86.8450 77° East 418 481 25,000  Level Chicago Center
01:44PM 42.6272 -86.6906 79° East 417 480 25,000  Level Chicago Center
01:45PM 42.6517 -86.5367 78° East 420 483 25,000  Level Chicago Center
01:46PM 42.6636 -86.3828 84° East 415 478 25,000  Level Chicago Center
01:47PM 42.6675 -86.1978 88° East 413 475 25,000  Level Chicago Center
01:48PM 42.6750 -86.0456 86° East 410 472 25,000  Level Chicago Center
01:49PM 42.6803 -85.8936 87° East 409 471 25,000  Level Chicago Center
01:50PM 42.6856 -85.7425 87° East 404 465 25,000  Level Chicago Center
01:51PM 42.6933 -85.5608 87° East 405 466 25,000 -720 Level Chicago Center
01:52PM 42.6986 -85.4103 87° East 404 465 23,600 -1,740 Descending Chicago Center
01:53PM 42.7036 -85.2600 87° East 402 463 21,500 -1,260 Descending Chicago Center
01:54PM 42.7078 -85.1147 88° East 393 452 21,000 -300 Descending Chicago Center
01:55PM 42.7153 -84.9761 86° East 375 432 21,000 -420 Level Chicago Center
01:56PM 42.7181 -84.8394 88° East 366 421 20,200 -1,440 Descending Chicago Center
01:58PM 42.7233 -84.6694 88° East 374 430 18,100 -1,680 Descending Chicago Center
01:58PM 42.7169 -84.5542 94° East 365 420 16,900 -1,560 Descending Cleveland Center
01:59PM 42.7153 -84.4211 91° East 365 420 15,100 -1,860 Descending Cleveland Center
02:00PM 42.7150 -84.3589 90° East 349 402 14,300 -1,800 Descending Cleveland Center
02:00PM 42.7136 -84.2797 91° East 345 397 13,300 -1,980 Descending Cleveland Center
02:01PM 42.7111 -84.1608 92° East 334 384 11,200 -1,860 Descending Cleveland Center
02:02PM 42.7139 -84.0675 88° East 292 336 9,600 -1,380 Descending Cleveland Center
02:04PM 42.6686 -83.9747 124° Southeast 258 297 8,400 -1,320 Descending Cleveland Center
02:04PM 42.6139 -83.9239 146° Southeast 241 277 7,000 -1,680 Descending Cleveland Center
02:05PM 42.5464 -83.8808 155° Southeast 260 299 5,300 -1,020 Descending Cleveland Center
02:06PM 42.4778 -83.8714 174° South 255 293 5,000 -660 Descending Cleveland Center
02:08PM 42.3947 -83.8589 174° South 237 273 3,900 -480 Descending Cleveland Center
02:09PM 42.3394 -83.8250 156° South 210 242 4,000  Climbing Cleveland Center
02:10PM 42.2842 -83.7914 156° South 213 245 4,000 -300 Level Cleveland Center
02:11PM 42.2286 -83.7575 156° South 222 255 3,400 -600 Descending Cleveland Center
02:12PM 42.1883 -83.7108 139° Southeast 203 234 2,900 -660 Descending Cleveland Center
02:13PM 42.1906 -83.6325 88° East 201 231 2,200 -660 Descending Cleveland Center
02:14PM 42.2042 -83.5825 70° East 123 142 1,600 -600 Descending Cleveland Center